Time;durP1;ratioP1;P1;durP2;ratioP2;P2;SDS_P1;SDS_P2;PMS_P1;PMS_P2;Temp;Humidity;BMP_temperature;BMP_pressure;BME280_temperature;BME280_humidity;BME280_pressure;Samples;Min_cycle;Max_cycle;Signal;HPM_P1;HPM_P2
2022/06/17 00:02:05;;;;;;;5.35;3.08;;;;;;;17.41;91.67;100809.69;4989521;28;20121;-71
2022/06/17 00:04:31;;;;;;;8.27;3.42;;;;;;;17.40;91.02;100805.31;4989814;28;20129;-70
2022/06/17 00:07:01;;;;;;;6.20;3.55;;;;;;;17.48;90.71;100814.13;4988822;28;20093;-71
2022/06/17 00:09:30;;;;;;;3.90;3.22;;;;;;;17.43;90.89;100814.09;4988716;28;20118;-70
2022/06/17 00:11:56;;;;;;;8.80;3.22;;;;;;;17.33;91.11;100798.25;4990211;28;20034;-69
2022/06/17 00:14:26;;;;;;;4.68;3.50;;;;;;;17.22;90.75;100772.00;4990475;28;20029;-68
2022/06/17 00:16:52;;;;;;;7.40;3.10;;;;;;;17.48;90.01;100793.25;4990548;28;20030;-70
2022/06/17 00:19:18;;;;;;;6.10;3.33;;;;;;;17.63;89.62;100811.75;4990159;28;20022;-70
2022/06/17 00:21:48;;;;;;;5.20;3.45;;;;;;;17.66;89.60;100804.78;4988671;28;20034;-70
2022/06/17 00:24:29;;;;;;;4.30;3.10;;;;;;;17.66;89.79;100802.19;4987657;28;20092;-69
2022/06/17 00:26:55;;;;;;;6.07;3.13;;;;;;;17.49;89.19;100771.50;4988100;28;20065;-68
2022/06/17 00:29:24;;;;;;;6.93;3.20;;;;;;;17.33;88.85;100741.72;4988440;28;20050;-69
2022/06/17 00:31:49;;;;;;;5.13;3.28;;;;;;;17.41;89.03;100763.59;4990279;28;20030;-67
2022/06/17 00:34:16;;;;;;;5.65;3.22;;;;;;;17.73;87.92;100784.03;4988634;28;20038;-70
2022/06/17 00:36:43;;;;;;;5.80;3.05;;;;;;;17.68;88.29;100774.38;4990057;28;20462;-70
2022/06/17 00:39:32;;;;;;;6.20;3.22;;;;;;;17.53;88.24;100781.13;4971880;28;20610;-70
2022/06/17 00:44:57;;;;;;;8.63;3.45;;;;;;;17.44;89.86;100791.47;5159820;23;20062;-70
2022/06/17 00:47:56;;;;;;;6.72;3.53;;;;;;;17.29;89.74;100797.34;5010484;28;20037;-70
2022/06/17 00:50:22;;;;;;;6.70;3.60;;;;;;;17.25;90.30;100792.94;5025327;28;20570;-71
2022/06/17 00:53:11;;;;;;;7.30;3.30;;;;;;;17.35;89.96;100788.72;5010474;28;20037;-70
2022/06/17 00:55:42;;;;;;;5.60;3.20;;;;;;;17.45;89.19;100786.25;4979762;28;20119;-70
2022/06/17 00:58:15;;;;;;;8.63;3.05;;;;;;;17.25;89.39;100780.75;4979962;28;20037;-69
2022/06/17 01:00:42;;;;;;;7.72;3.63;;;;;;;17.11;91.01;100800.56;4979710;28;20041;-68
2022/06/17 01:03:12;;;;;;;4.18;2.88;;;;;;;17.21;90.07;100791.13;4980392;28;20170;-70
2022/06/17 01:05:46;;;;;;;7.20;3.08;;;;;;;17.02;90.02;100769.09;4985144;28;20041;-69
2022/06/17 01:11:30;;;;;;;7.40;3.20;;;;;;;16.97;90.94;100798.59;4963545;28;20119;-72
2022/06/17 01:13:56;;;;;;;6.60;3.38;;;;;;;16.91;91.38;100790.69;4962273;28;20046;-70
2022/06/17 01:16:33;;;;;;;6.38;3.15;;;;;;;17.02;90.44;100782.13;4968993;28;20097;-70
2022/06/17 01:19:09;;;;;;;4.75;3.25;;;;;;;16.91;90.71;100772.44;4951209;28;20560;-70
2022/06/17 01:21:43;;;;;;;6.85;3.70;;;;;;;16.78;91.40;100754.78;4966879;28;20399;-70
2022/06/17 01:24:10;;;;;;;5.40;3.30;;;;;;;16.84;91.62;100762.72;4968882;28;20116;-68
2022/06/17 01:26:35;;;;;;;7.85;3.63;;;;;;;16.69;92.36;100767.69;4968985;28;20046;-70
2022/06/17 01:29:01;;;;;;;7.93;4.03;;;;;;;16.44;94.06;100767.28;4968810;28;20043;-70
2022/06/17 01:31:28;;;;;;;5.72;3.60;;;;;;;16.17;95.81;100755.47;4968235;28;20062;-70
2022/06/17 01:33:54;;;;;;;9.65;3.80;;;;;;;16.17;95.85;100760.69;4949520;28;20068;-70
2022/06/17 01:36:26;;;;;;;6.05;3.60;;;;;;;16.26;95.10;100752.16;4949660;29;20520;-69
2022/06/17 01:38:56;;;;;;;7.07;3.72;;;;;;;16.33;94.53;100756.66;4947060;29;20058;-70
2022/06/17 01:41:26;;;;;;;8.75;3.42;;;;;;;16.40;94.09;100753.31;4946462;28;20058;-70
2022/06/17 01:44:14;;;;;;;5.85;3.42;;;;;;;16.40;94.06;100753.31;4945550;29;20085;-69
2022/06/17 01:46:43;;;;;;;7.57;3.00;;;;;;;16.44;93.16;100749.03;4957133;28;20041;-69
2022/06/17 01:49:18;;;;;;;8.45;3.50;;;;;;;16.44;93.18;100739.47;5012644;28;20173;-70
2022/06/17 01:51:51;;;;;;;5.60;3.15;;;;;;;16.28;95.13;100743.53;5013780;28;20026;-70
2022/06/17 01:54:58;;;;;;;5.15;3.10;;;;;;;16.23;96.48;100737.34;5018016;28;20038;-70
2022/06/17 01:57:30;;;;;;;5.57;3.60;;;;;;;16.25;96.20;100733.06;4982227;28;20038;-71
2022/06/17 02:00:16;;;;;;;8.05;3.58;;;;;;;16.31;94.81;100738.38;4980233;28;20478;-69
2022/06/17 02:02:45;;;;;;;7.43;3.17;;;;;;;16.46;93.62;100737.78;4981665;28;20119;-70
2022/06/17 02:05:12;;;;;;;7.55;3.75;;;;;;;16.38;93.12;100712.44;4978725;28;20035;-70
2022/06/17 02:07:52;;;;;;;7.35;3.70;;;;;;;16.21;93.79;100731.25;4981742;28;20033;-70
2022/06/17 02:10:23;;;;;;;7.70;3.33;;;;;;;16.29;93.53;100732.25;4980497;28;20478;-68
2022/06/17 02:12:49;;;;;;;7.20;3.58;;;;;;;16.29;93.31;100726.19;4980760;28;20058;-69
2022/06/17 02:15:16;;;;;;;7.15;3.28;;;;;;;16.47;92.98;100738.63;4965687;28;20038;-69
2022/06/17 02:17:44;;;;;;;5.72;3.30;;;;;;;16.25;92.37;100725.25;4966178;28;20023;-68
2022/06/17 02:23:32;;;;;;;6.72;3.88;;;;;;;15.77;95.22;100710.44;5113898;22;20427;-69
2022/06/17 02:26:00;;;;;;;6.38;3.70;;;;;;;16.16;93.81;100748.50;5033427;28;20021;-68
2022/06/17 02:28:29;;;;;;;5.55;3.70;;;;;;;16.16;93.59;100744.19;5033525;28;20034;-68
2022/06/17 02:30:55;;;;;;;6.00;3.77;;;;;;;15.80;95.07;100736.50;5033522;28;20032;-69
2022/06/17 02:33:23;;;;;;;7.53;3.58;;;;;;;15.68;95.65;100745.84;5027493;28;20080;-71
2022/06/17 02:35:55;;;;;;;7.55;3.53;;;;;;;15.65;94.63;100722.34;5008523;28;20045;-68
2022/06/17 02:38:27;;;;;;;7.70;3.17;;;;;;;15.79;94.42;100742.59;5003856;28;20029;-68
2022/06/17 02:40:58;;;;;;;6.55;3.20;;;;;;;15.76;94.42;100748.59;5004808;28;20041;-67
2022/06/17 02:43:28;;;;;;;4.22;2.90;;;;;;;15.69;94.75;100739.78;5004153;28;20103;-68
2022/06/17 02:46:01;;;;;;;4.70;3.17;;;;;;;15.67;95.04;100740.59;5004314;28;20022;-68
2022/06/17 02:48:31;;;;;;;6.93;3.10;;;;;;;15.56;95.39;100726.50;5003126;28;20472;-67
2022/06/17 02:50:59;;;;;;;7.00;3.50;;;;;;;15.50;95.91;100727.22;5001669;28;20045;-70
2022/06/17 02:53:33;;;;;;;5.30;3.15;;;;;;;15.45;96.18;100713.25;4983037;28;20046;-71
2022/06/17 02:56:00;;;;;;;8.98;3.63;;;;;;;15.31;95.90;100687.81;5011122;28;20028;-70
2022/06/17 02:58:46;;;;;;;7.10;3.00;;;;;;;15.59;95.81;100727.44;5012641;28;20026;-71
2022/06/17 03:01:19;;;;;;;6.78;3.53;;;;;;;15.46;96.35;100735.81;5012287;28;20117;-70
2022/06/17 03:03:45;;;;;;;9.07;3.58;;;;;;;15.56;95.97;100734.31;5008800;28;20037;-68
2022/06/17 03:06:24;;;;;;;4.88;3.40;;;;;;;15.57;95.63;100734.31;5012711;28;20018;-69
2022/06/17 03:08:52;;;;;;;5.80;3.38;;;;;;;15.48;95.58;100723.75;5009930;28;20088;-67
2022/06/17 03:11:21;;;;;;;6.25;3.50;;;;;;;14.75;97.78;100706.50;5005657;28;20026;-67
2022/06/17 03:13:53;;;;;;;8.23;3.45;;;;;;;14.93;98.47;100703.47;5011745;28;20030;-70
2022/06/17 03:16:21;;;;;;;5.93;3.42;;;;;;;15.16;97.92;100729.13;5012291;28;20036;-71
2022/06/17 03:18:49;;;;;;;8.02;3.50;;;;;;;15.20;98.18;100737.03;5008998;28;20037;-70
2022/06/17 03:21:20;;;;;;;9.93;3.70;;;;;;;15.12;98.70;100719.50;5009386;28;20030;-67
2022/06/17 03:23:55;;;;;;;8.73;3.50;;;;;;;15.22;98.74;100744.00;5012204;28;20057;-71
2022/06/17 03:26:28;;;;;;;7.05;3.33;;;;;;;15.00;99.63;100744.38;5010391;28;20026;-68
2022/06/17 03:28:55;;;;;;;6.40;3.40;;;;;;;14.39;100.00;100741.09;5009147;28;20034;-73
2022/06/17 03:31:30;;;;;;;6.78;3.60;;;;;;;14.22;100.00;100725.09;5012105;28;20026;-70
2022/06/17 03:34:00;;;;;;;5.43;3.38;;;;;;;14.65;100.00;100759.97;5002314;28;20499;-70
2022/06/17 03:36:32;;;;;;;6.32;3.40;;;;;;;14.53;100.00;100715.50;4993919;28;20505;-70
2022/06/17 03:39:00;;;;;;;4.82;3.60;;;;;;;14.64;100.00;100745.22;4996669;28;20104;-68
2022/06/17 03:41:55;;;;;;;6.78;3.28;;;;;;;14.63;100.00;100758.16;4991777;28;20030;-68
2022/06/17 03:44:26;;;;;;;9.70;3.75;;;;;;;14.42;100.00;100761.09;4951919;28;20039;-68
2022/06/17 03:47:09;;;;;;;7.18;3.95;;;;;;;14.38;100.00;100755.81;4950229;28;20031;-70
2022/06/17 03:49:57;;;;;;;6.35;3.85;;;;;;;14.61;100.00;100760.72;4950248;28;20031;-72
2022/06/17 03:53:01;;;;;;;4.73;3.93;;;;;;;14.81;100.00;100769.03;4952616;28;20038;-72
2022/06/17 03:55:28;;;;;;;9.05;4.20;;;;;;;14.75;100.00;100765.41;4930706;29;20039;-68
2022/06/17 03:57:57;;;;;;;7.13;4.75;;;;;;;14.85;100.00;100770.00;4922364;29;20115;-71
2022/06/17 04:00:31;;;;;;;9.15;4.10;;;;;;;14.90;100.00;100768.38;4872837;29;20048;-70
2022/06/17 04:03:00;;;;;;;9.32;4.97;;;;;;;15.04;100.00;100767.00;4927744;29;20466;-71
2022/06/17 04:05:27;;;;;;;8.93;4.63;;;;;;;15.24;100.00;100766.59;4909638;29;20040;-71
2022/06/17 04:07:52;;;;;;;10.75;4.60;;;;;;;14.90;100.00;100757.97;4862148;29;20063;-69
2022/06/17 04:10:23;;;;;;;6.53;4.78;;;;;;;15.01;100.00;100740.03;4911235;29;20028;-70
2022/06/17 04:12:51;;;;;;;8.88;4.47;;;;;;;15.20;100.00;100759.53;4911847;29;20044;-71
2022/06/17 04:15:46;;;;;;;12.35;4.60;;;;;;;15.14;100.00;100739.50;4909566;29;20523;-68
2022/06/17 04:18:11;;;;;;;9.13;4.70;;;;;;;15.48;100.00;100767.97;4911593;29;20047;-69
2022/06/17 04:20:43;;;;;;;12.90;5.00;;;;;;;15.71;100.00;100755.44;4920976;29;20043;-70
2022/06/17 04:23:18;;;;;;;10.98;4.53;;;;;;;15.92;100.00;100759.34;4946614;29;20059;-70
2022/06/17 04:26:01;;;;;;;10.65;4.65;;;;;;;16.16;98.04;100769.34;4950007;29;20043;-70
2022/06/17 04:28:42;;;;;;;8.15;5.43;;;;;;;16.38;96.86;100760.22;4946859;29;20466;-72
2022/06/17 04:31:15;;;;;;;11.60;5.10;;;;;;;16.29;96.66;100755.72;4979778;28;20606;-70
2022/06/17 04:33:45;;;;;;;20.52;6.18;;;;;;;16.31;97.98;100763.53;5009524;28;20026;-68
2022/06/17 04:36:19;;;;;;;15.75;5.40;;;;;;;16.25;98.63;100768.63;5007713;28;20026;-70
2022/06/17 04:39:27;;;;;;;14.60;5.18;;;;;;;16.44;97.25;100764.66;5007631;28;20046;-68
2022/06/17 04:41:57;;;;;;;13.30;4.50;;;;;;;16.62;95.91;100762.38;4930542;29;20062;-67
2022/06/17 04:44:22;;;;;;;10.40;5.05;;;;;;;16.74;95.33;100764.28;4930470;29;20038;-71
2022/06/17 04:46:58;;;;;;;11.43;4.93;;;;;;;16.85;95.50;100754.03;4930544;29;20029;-70
2022/06/17 04:49:28;;;;;;;10.20;5.65;;;;;;;16.97;93.56;100771.63;4930608;29;20036;-69
2022/06/17 04:52:00;;;;;;;9.95;5.03;;;;;;;16.81;94.82;100767.91;4930268;29;20042;-71
2022/06/17 04:54:28;;;;;;;14.48;4.93;;;;;;;16.69;93.74;100765.09;4928044;29;20494;-71
2022/06/17 04:56:56;;;;;;;11.27;4.78;;;;;;;16.62;94.41;100766.69;4930378;29;20031;-73
2022/06/17 04:59:32;;;;;;;8.98;4.85;;;;;;;16.67;95.98;100767.63;4930050;29;20042;-70
2022/06/17 05:02:01;;;;;;;9.63;4.70;;;;;;;16.56;95.89;100735.31;4930181;29;20046;-70
2022/06/17 05:04:27;;;;;;;8.85;4.80;;;;;;;16.89;94.33;100765.41;4927769;29;20032;-69
2022/06/17 05:06:52;;;;;;;9.35;5.13;;;;;;;17.04;93.95;100762.19;4930118;29;20043;-74
2022/06/17 05:09:26;;;;;;;7.50;4.57;;;;;;;17.16;93.46;100764.09;4930218;29;20038;-71
2022/06/17 05:11:58;;;;;;;12.05;4.97;;;;;;;17.29;92.67;100769.50;4930346;29;20044;-71
2022/06/17 05:14:45;;;;;;;10.20;4.45;;;;;;;17.46;89.46;100764.53;4930109;29;20083;-70
2022/06/17 05:17:11;;;;;;;7.95;4.40;;;;;;;17.50;88.82;100748.91;4930323;29;20040;-67
2022/06/17 05:19:36;;;;;;;10.10;4.60;;;;;;;17.79;89.67;100770.16;5000717;28;20049;-70
2022/06/17 05:22:11;;;;;;;9.60;4.47;;;;;;;17.85;89.09;100770.22;5010833;28;20030;-70
2022/06/17 05:24:36;;;;;;;10.35;4.28;;;;;;;17.91;86.11;100759.84;5014152;28;20034;-69
2022/06/17 05:27:02;;;;;;;11.77;4.47;;;;;;;18.03;84.42;100758.25;5013606;28;20108;-68
2022/06/17 05:29:27;;;;;;;14.07;4.70;;;;;;;18.10;83.39;100754.84;5013865;28;20472;-70
2022/06/17 05:31:54;;;;;;;9.38;3.97;;;;;;;18.26;82.90;100759.38;5013819;28;20029;-71
2022/06/17 05:34:19;;;;;;;10.52;4.40;;;;;;;18.37;81.84;100753.41;5011034;28;20022;-70
2022/06/17 05:36:45;;;;;;;10.48;4.18;;;;;;;18.54;80.57;100766.59;5011239;28;20507;-71
2022/06/17 05:39:10;;;;;;;14.15;4.70;;;;;;;18.67;79.71;100762.38;5013690;28;20052;-69
2022/06/17 05:41:36;;;;;;;11.00;4.22;;;;;;;18.72;79.01;100750.22;5013685;28;20025;-70
2022/06/17 05:44:02;;;;;;;9.43;4.40;;;;;;;18.65;81.65;100735.31;5013048;28;20287;-70
2022/06/17 05:46:28;;;;;;;12.10;4.60;;;;;;;18.71;80.27;100748.44;5013207;28;20036;-69
2022/06/17 05:48:53;;;;;;;11.07;4.40;;;;;;;18.60;80.36;100743.13;5013107;28;20025;-70
2022/06/17 05:51:19;;;;;;;13.95;4.45;;;;;;;18.72;81.04;100742.38;5013385;28;20065;-68
2022/06/17 05:53:44;;;;;;;14.80;5.15;;;;;;;18.83;85.36;100737.19;5013626;28;20026;-70
2022/06/17 05:56:10;;;;;;;11.20;4.57;;;;;;;18.92;84.75;100735.56;5013204;28;20030;-67
2022/06/17 05:58:36;;;;;;;10.93;4.45;;;;;;;19.15;83.17;100744.41;5013593;28;20040;-68
2022/06/17 06:01:01;;;;;;;8.73;4.50;;;;;;;19.17;84.39;100743.56;5013374;28;20034;-69
2022/06/17 06:03:28;;;;;;;7.85;4.32;;;;;;;19.33;83.56;100728.81;5013334;28;20025;-69
2022/06/17 06:05:54;;;;;;;14.85;4.78;;;;;;;19.46;82.76;100728.88;5013559;28;20033;-68
2022/06/17 06:08:20;;;;;;;9.90;4.57;;;;;;;19.45;82.82;100706.19;5013373;28;20412;-69
2022/06/17 06:10:46;;;;;;;11.80;4.43;;;;;;;19.63;83.58;100705.38;5005414;28;20035;-70
2022/06/17 06:13:18;;;;;;;9.20;4.70;;;;;;;19.80;81.36;100729.00;5009372;28;20033;-70
2022/06/17 06:15:47;;;;;;;10.10;4.50;;;;;;;19.86;80.25;100727.31;5013219;28;20096;-72
2022/06/17 06:18:15;;;;;;;13.00;4.63;;;;;;;20.01;75.68;100729.09;5013723;28;20477;-68
2022/06/17 06:20:41;;;;;;;14.85;4.88;;;;;;;20.02;76.93;100716.88;5013265;28;20413;-72
2022/06/17 06:23:07;;;;;;;13.70;5.13;;;;;;;20.07;73.38;100724.75;5018210;28;20060;-74
2022/06/17 06:25:33;;;;;;;11.80;5.25;;;;;;;20.04;72.64;100729.09;5031973;28;20041;-71
2022/06/17 06:27:58;;;;;;;10.48;4.30;;;;;;;19.44;70.49;100636.34;5032912;28;20507;-73
2022/06/17 06:30:29;;;;;;;12.05;4.55;;;;;;;19.94;72.48;100722.09;5031076;28;20044;-70
2022/06/17 06:32:55;;;;;;;9.65;4.13;;;;;;;19.88;72.53;100703.75;5031388;28;20076;-68
2022/06/17 06:35:24;;;;;;;11.73;4.25;;;;;;;19.84;71.01;100700.22;5031556;28;20060;-70
2022/06/17 06:37:50;;;;;;;12.88;3.95;;;;;;;20.17;69.40;100716.00;5031888;28;20021;-68
2022/06/17 06:40:16;;;;;;;7.05;3.92;;;;;;;20.49;68.20;100726.53;5032280;28;20384;-69
2022/06/17 06:42:42;;;;;;;9.55;4.10;;;;;;;20.68;68.37;100713.41;5032978;28;20029;-68
2022/06/17 06:45:13;;;;;;;9.27;3.47;;;;;;;20.72;67.58;100712.53;5032952;28;20091;-68
2022/06/17 06:47:38;;;;;;;10.98;3.85;;;;;;;20.85;66.15;100706.41;5032474;28;20079;-68
2022/06/17 06:50:04;;;;;;;11.10;3.95;;;;;;;20.82;66.37;100674.94;5032339;28;20030;-69
2022/06/17 06:52:30;;;;;;;13.70;3.97;;;;;;;21.10;68.29;100697.63;5030229;28;20495;-71
2022/06/17 06:54:55;;;;;;;10.65;3.30;;;;;;;20.95;65.14;100688.03;5031931;28;20026;-74
2022/06/17 06:57:21;;;;;;;9.50;3.10;;;;;;;21.06;65.19;100688.00;5032024;28;20786;-72
2022/06/17 06:59:47;;;;;;;6.70;2.40;;;;;;;21.29;59.10;100672.16;5013846;28;20025;-68
2022/06/17 07:02:13;;;;;;;6.38;2.60;;;;;;;21.43;56.91;100664.22;5032233;28;20025;-71
2022/06/17 07:04:38;;;;;;;5.45;2.35;;;;;;;21.71;57.52;100683.38;5032304;28;20018;-70
2022/06/17 07:07:05;;;;;;;7.15;2.67;;;;;;;21.76;59.67;100667.59;5032039;28;20112;-69
2022/06/17 07:09:30;;;;;;;7.72;2.95;;;;;;;21.75;63.03;100679.84;5032361;28;20029;-68
2022/06/17 07:11:56;;;;;;;6.50;2.65;;;;;;;21.38;58.20;100640.59;5029563;28;20040;-69
2022/06/17 07:14:21;;;;;;;7.82;2.65;;;;;;;21.61;61.74;100681.69;5031429;28;20025;-72
2022/06/17 07:16:48;;;;;;;6.00;2.42;;;;;;;21.59;60.12;100675.56;5031402;28;20025;-68
2022/06/17 07:19:19;;;;;;;6.35;2.30;;;;;;;21.62;56.15;100670.28;5031660;28;20049;-70
2022/06/17 07:21:45;;;;;;;10.13;2.90;;;;;;;21.65;58.97;100644.00;5031917;28;20060;-70
2022/06/17 07:24:10;;;;;;;6.82;2.55;;;;;;;21.85;58.95;100671.94;5032101;28;20077;-71
2022/06/17 07:26:36;;;;;;;4.72;2.58;;;;;;;22.06;57.06;100670.91;5031888;28;20049;-68
2022/06/17 07:29:02;;;;;;;7.35;2.88;;;;;;;22.11;57.50;100648.94;5031654;28;20029;-74
2022/06/17 07:31:28;;;;;;;6.18;2.63;;;;;;;22.34;55.03;100650.50;5029639;28;20044;-71
2022/06/17 07:33:56;;;;;;;9.30;2.80;;;;;;;22.49;54.61;100651.28;5030865;28;20025;-71
2022/06/17 07:41:56;;;;;;;5.38;2.30;;;;;;;22.67;53.00;100648.47;5030889;28;20120;-68
2022/06/17 07:44:21;;;;;;;4.47;2.47;;;;;;;22.78;54.10;100645.75;5031163;28;20033;-71
2022/06/17 07:46:47;;;;;;;7.25;2.70;;;;;;;22.71;57.27;100649.31;5029789;28;20116;-69
2022/06/17 07:49:13;;;;;;;5.72;2.72;;;;;;;22.68;57.06;100644.97;5030918;28;20017;-71
2022/06/17 07:51:39;;;;;;;8.90;3.00;;;;;;;22.70;59.11;100647.56;5029817;28;20507;-73
2022/06/17 07:54:04;;;;;;;6.93;2.50;;;;;;;22.69;54.30;100641.44;5031230;28;20040;-69
2022/06/17 07:56:30;;;;;;;9.60;2.90;;;;;;;22.82;54.91;100630.75;5030395;28;20025;-72
2022/06/17 07:58:55;;;;;;;6.70;2.55;;;;;;;22.80;55.06;100628.16;5028793;28;20041;-68
2022/06/17 08:01:21;;;;;;;6.97;2.50;;;;;;;22.96;54.44;100602.53;5029786;28;20021;-69
2022/06/17 08:03:46;;;;;;;4.78;2.70;;;;;;;23.11;57.30;100633.06;5029703;28;20049;-68
2022/06/17 08:06:13;;;;;;;4.65;2.40;;;;;;;23.11;57.58;100627.78;5029837;28;20084;-70
2022/06/17 08:08:41;;;;;;;7.30;2.72;;;;;;;23.26;55.27;100621.47;5030507;28;20022;-72
2022/06/17 08:11:07;;;;;;;6.82;2.97;;;;;;;23.46;54.34;100629.13;4996017;28;20052;-71
2022/06/17 08:13:33;;;;;;;6.72;2.83;;;;;;;23.51;54.46;100626.44;5030290;28;20025;-70
2022/06/17 08:16:01;;;;;;;4.10;2.45;;;;;;;23.67;53.36;100627.06;5030108;28;20025;-70
2022/06/17 08:18:27;;;;;;;6.53;2.63;;;;;;;23.80;51.67;100627.75;5027807;28;20448;-68
2022/06/17 08:20:52;;;;;;;4.10;2.40;;;;;;;23.85;52.05;100628.56;5030149;28;20408;-69
2022/06/17 08:23:19;;;;;;;6.53;2.83;;;;;;;24.03;52.20;100627.44;4988247;28;20058;-70
2022/06/17 08:25:45;;;;;;;5.63;2.45;;;;;;;24.16;50.59;100614.91;4990293;28;20070;-69
2022/06/17 08:28:12;;;;;;;8.73;2.58;;;;;;;24.07;52.31;100589.56;4988852;28;20042;-72
2022/06/17 08:30:41;;;;;;;3.22;2.30;;;;;;;24.22;51.01;100610.41;4987730;28;20022;-66
2022/06/17 08:33:07;;;;;;;5.93;2.42;;;;;;;24.23;50.08;100611.25;4988415;28;20050;-69
2022/06/17 08:35:35;;;;;;;4.43;2.65;;;;;;;24.32;56.47;100616.38;4988466;28;20042;-69
2022/06/17 08:38:04;;;;;;;7.03;2.92;;;;;;;24.47;59.85;100609.94;4985698;28;20066;-65
2022/06/17 08:40:36;;;;;;;5.70;2.70;;;;;;;24.48;50.02;100611.69;4988424;28;20030;-66
2022/06/17 08:43:20;;;;;;;8.93;2.70;;;;;;;24.62;52.00;100619.34;4985559;28;20045;-66
2022/06/17 08:45:49;;;;;;;6.70;2.70;;;;;;;24.75;50.97;100608.56;4986351;28;20026;-69
2022/06/17 08:48:20;;;;;;;7.88;2.55;;;;;;;24.85;49.63;100613.66;4988020;28;20050;-68
2022/06/17 08:51:07;;;;;;;4.15;2.20;;;;;;;24.86;46.77;100612.75;4985804;28;20062;-65
2022/06/17 08:53:52;;;;;;;5.63;2.33;;;;;;;24.83;46.87;100609.31;4994583;28;20428;-67
2022/06/17 08:56:32;;;;;;;5.07;2.17;;;;;;;24.99;49.27;100612.50;4993932;28;20038;-66
2022/06/17 08:59:19;;;;;;;4.10;2.05;;;;;;;25.03;44.18;100598.31;5028940;28;20056;-66
2022/06/17 09:02:01;;;;;;;5.60;2.15;;;;;;;25.09;48.07;100613.19;5027023;28;20404;-67
2022/06/17 09:04:58;;;;;;;5.53;2.20;;;;;;;25.16;45.82;100614.78;5029909;28;20028;-69
2022/06/17 09:07:59;;;;;;;3.25;1.70;;;;;;;25.31;42.83;100603.88;5011097;28;20037;-68
2022/06/17 09:10:36;;;;;;;4.13;2.13;;;;;;;25.55;43.61;100603.41;4929996;29;20043;-66
2022/06/17 09:13:13;;;;;;;5.82;2.13;;;;;;;25.64;44.76;100616.41;4929996;29;20086;-69
2022/06/17 09:15:52;;;;;;;3.85;2.13;;;;;;;25.74;44.50;100602.06;4929974;29;20122;-66
2022/06/17 09:18:41;;;;;;;5.95;2.53;;;;;;;25.85;45.07;100601.81;4929985;29;20427;-67
2022/06/17 09:21:20;;;;;;;4.90;1.90;;;;;;;25.69;40.90;100593.38;4930243;29;20490;-69
2022/06/17 09:23:46;;;;;;;4.10;1.55;;;;;;;25.91;38.22;100588.44;4913989;29;20526;-69
2022/06/17 09:26:29;;;;;;;1.80;1.50;;;;;;;25.78;36.61;100590.53;4930152;29;20043;-67
2022/06/17 09:29:09;;;;;;;4.38;1.60;;;;;;;25.81;37.93;100592.22;4929959;29;20039;-68
2022/06/17 09:31:48;;;;;;;2.15;1.50;;;;;;;26.06;35.28;100581.91;4930059;29;20516;-70
2022/06/17 09:34:30;;;;;;;2.33;1.80;;;;;;;26.24;35.70;100583.19;4927897;29;20123;-67
2022/06/17 09:37:01;;;;;;;4.57;1.52;;;;;;;26.47;36.87;100584.38;4930250;29;20267;-68
2022/06/17 09:39:40;;;;;;;3.42;1.60;;;;;;;26.63;35.25;100587.44;4927541;29;20116;-72
2022/06/17 09:42:23;;;;;;;3.30;1.60;;;;;;;26.71;34.31;100579.31;4913792;29;20031;-69
2022/06/17 09:44:57;;;;;;;1.75;1.45;;;;;;;26.68;39.27;100560.84;4927494;29;20063;-69
2022/06/17 09:47:48;;;;;;;1.75;1.60;;;;;;;26.77;40.76;100568.56;5006041;28;20093;-69
2022/06/17 09:50:24;;;;;;;4.13;2.00;;;;;;;26.98;36.80;100584.72;5027550;28;20512;-67
2022/06/17 09:52:58;;;;;;;3.70;1.50;;;;;;;27.02;35.62;100570.50;5027044;28;20022;-69
2022/06/17 09:55:28;;;;;;;4.07;1.70;;;;;;;26.87;34.68;100561.22;5029624;28;20026;-67
2022/06/17 09:58:21;;;;;;;2.58;1.50;;;;;;;26.64;36.59;100538.88;5027250;28;20662;-68
2022/06/17 10:00:52;;;;;;;3.55;1.40;;;;;;;27.09;34.54;100564.06;5025275;28;20021;-67
2022/06/17 10:03:30;;;;;;;2.47;1.52;;;;;;;27.22;38.64;100568.09;5026651;28;20515;-69
2022/06/17 10:06:04;;;;;;;2.60;1.60;;;;;;;27.31;38.00;100559.00;5026493;28;20369;-68
2022/06/17 10:08:57;;;;;;;2.20;1.38;;;;;;;27.49;35.74;100556.69;5029145;28;20787;-69
2022/06/17 10:11:33;;;;;;;2.95;1.60;;;;;;;27.54;36.01;100553.00;5030413;28;20029;-69
2022/06/17 10:14:20;;;;;;;2.45;1.60;;;;;;;27.55;32.06;100560.03;5032670;28;20116;-69
2022/06/17 10:19:44;;;;;;;2.92;1.33;;;;;;;27.92;31.66;100553.47;5031692;28;20071;-68
2022/06/17 10:22:47;;;;;;;3.13;1.55;;;;;;;28.14;29.68;100550.13;5030468;28;20061;-69
2022/06/17 10:25:47;;;;;;;2.25;1.60;;;;;;;28.25;31.40;100545.31;5030499;28;20522;-67
2022/06/17 10:28:18;;;;;;;4.43;1.40;;;;;;;28.51;33.17;100545.28;4951908;29;20039;-67
2022/06/17 10:30:52;;;;;;;1.73;1.40;;;;;;;28.50;30.54;100541.78;4951992;29;20134;-69
2022/06/17 10:33:18;;;;;;;3.80;1.50;;;;;;;28.76;32.46;100537.28;4951964;29;20040;-70
2022/06/17 10:35:47;;;;;;;3.13;1.52;;;;;;;28.61;31.11;100528.06;4951860;29;20070;-69
2022/06/17 10:38:22;;;;;;;2.50;1.42;;;;;;;28.76;31.24;100505.41;4951146;29;20035;-68
2022/06/17 10:40:48;;;;;;;2.10;1.40;;;;;;;29.14;34.59;100532.28;4949527;29;20038;-68
2022/06/17 10:43:32;;;;;;;2.70;1.60;;;;;;;29.01;39.88;100497.38;4901389;29;20044;-68
2022/06/17 10:45:59;;;;;;;3.92;1.73;;;;;;;28.99;33.26;100501.00;4950405;29;20563;-67
2022/06/17 10:48:32;;;;;;;4.57;1.95;;;;;;;29.28;33.94;100496.31;4951440;29;20510;-68
2022/06/17 10:51:00;;;;;;;2.17;1.40;;;;;;;29.35;32.68;100498.69;4951124;29;20035;-69
2022/06/17 10:53:38;;;;;;;2.00;1.50;;;;;;;29.32;32.41;100509.47;4951439;29;20039;-70
2022/06/17 10:56:24;;;;;;;2.75;1.80;;;;;;;29.20;34.50;100520.56;4951726;29;20035;-69
2022/06/17 10:59:02;;;;;;;2.60;1.70;;;;;;;29.41;32.39;100515.31;4951681;29;20501;-69
2022/06/17 11:01:45;;;;;;;2.35;1.40;;;;;;;29.43;32.11;100482.41;4951558;29;20038;-69
2022/06/17 11:04:18;;;;;;;2.22;1.50;;;;;;;29.62;30.34;100505.56;4956537;28;20039;-66
2022/06/17 11:07:05;;;;;;;2.47;1.50;;;;;;;29.73;30.43;100505.13;5031765;28;20087;-66
2022/06/17 11:09:37;;;;;;;2.67;1.60;;;;;;;29.61;30.02;100502.06;5032062;28;20029;-66
2022/06/17 11:12:14;;;;;;;1.73;1.35;;;;;;;29.60;30.91;100483.50;5031837;28;20029;-70
2022/06/17 11:14:45;;;;;;;2.63;1.70;;;;;;;29.97;36.86;100497.91;5023228;28;20033;-68
2022/06/17 11:17:21;;;;;;;2.60;1.33;;;;;;;30.23;28.75;100495.88;5031851;28;20021;-69
2022/06/17 11:19:52;;;;;;;2.75;1.40;;;;;;;30.39;29.17;100486.25;5030830;28;20021;-70
2022/06/17 11:22:25;;;;;;;5.45;1.40;;;;;;;30.20;28.25;100458.78;5031918;28;20117;-67
2022/06/17 11:24:55;;;;;;;2.63;1.70;;;;;;;30.48;28.42;100488.56;5032352;28;20030;-67
2022/06/17 11:27:33;;;;;;;2.97;1.55;;;;;;;30.31;28.73;100485.78;5032119;28;20030;-69
2022/06/17 11:30:17;;;;;;;2.63;1.33;;;;;;;30.48;29.50;100479.66;5032363;28;20083;-71
2022/06/17 11:32:45;;;;;;;2.28;1.20;;;;;;;30.55;29.42;100465.16;5032150;28;20033;-71
2022/06/17 11:35:26;;;;;;;3.28;1.70;;;;;;;30.56;28.23;100472.22;5022970;28;20488;-70
2022/06/17 11:37:52;;;;;;;4.80;1.42;;;;;;;30.58;28.01;100474.78;5012255;28;20676;-73
2022/06/17 11:40:23;;;;;;;3.33;1.48;;;;;;;30.84;28.21;100476.22;5023834;28;20029;-69
2022/06/17 11:42:53;;;;;;;3.83;1.52;;;;;;;31.01;27.27;100470.09;5032097;28;20455;-69
2022/06/17 11:45:24;;;;;;;2.55;1.50;;;;;;;30.76;27.18;100471.25;5016018;28;20022;-67
2022/06/17 11:47:55;;;;;;;3.70;1.70;;;;;;;30.82;28.42;100462.97;5011962;28;20030;-70
2022/06/17 11:50:42;;;;;;;3.88;1.60;;;;;;;31.12;32.29;100467.78;5011825;28;20546;-67
2022/06/17 11:53:12;;;;;;;3.60;1.50;;;;;;;31.23;28.88;100463.72;5012160;28;20029;-67
2022/06/17 11:55:43;;;;;;;6.70;1.83;;;;;;;31.42;30.78;100455.69;5011926;28;20030;-67
2022/06/17 11:58:10;;;;;;;4.38;1.45;;;;;;;31.64;31.48;100452.81;5011895;28;20056;-67
2022/06/17 12:00:46;;;;;;;3.22;1.80;;;;;;;31.31;28.89;100453.53;5011839;28;20018;-70
2022/06/17 12:03:15;;;;;;;3.05;1.60;;;;;;;30.95;28.94;100460.56;5012236;28;20041;-69
2022/06/17 12:05:42;;;;;;;7.35;1.73;;;;;;;30.82;28.11;100448.81;5011743;28;20040;-70